Time;durP1;ratioP1;P1;durP2;ratioP2;P2;SDS_P1;SDS_P2;PMS_P1;PMS_P2;Temp;Humidity;BMP_temperature;BMP_pressure;BME280_temperature;BME280_humidity;BME280_pressure;Samples;Min_cycle;Max_cycle;Signal;HPM_P1;HPM_P2
2022/01/11 00:00:23;;;;;;;;;;;6.80;99.90;;;;;;5011867;28;19910;-70
2022/01/11 00:02:49;;;;;;;;;;;6.80;99.90;;;;;;5008255;28;19939;-69
2022/01/11 00:05:37;;;;;;;;;;;6.70;99.90;;;;;;5010728;28;20366;-69
2022/01/11 00:08:04;;;;;;;;;;;6.70;99.90;;;;;;5006097;28;19909;-70
2022/01/11 00:10:38;;;;;;;;;;;6.70;99.90;;;;;;5011158;28;19909;-71
2022/01/11 00:13:03;;;;;;;;;;;6.70;99.90;;;;;;5008308;28;19915;-70
2022/01/11 00:15:29;;;;;;;;;;;6.70;99.90;;;;;;5010198;28;19913;-69
2022/01/11 00:17:57;;;;;;;;;;;6.60;99.90;;;;;;5010221;28;19920;-71
2022/01/11 00:20:23;;;;;;;;;;;6.60;99.90;;;;;;5009595;28;19963;-70
2022/01/11 00:25:27;;;;;;;;;;;6.60;99.90;;;;;;5013032;28;19931;-71
2022/01/11 00:27:53;;;;;;;;;;;6.60;99.90;;;;;;5010444;28;19917;-71
2022/01/11 00:30:19;;;;;;;;;;;6.50;99.90;;;;;;5012022;28;20328;-71
2022/01/11 00:32:50;;;;;;;;;;;6.50;99.90;;;;;;5011003;28;19919;-70
2022/01/11 00:35:17;;;;;;;;;;;6.50;99.90;;;;;;5011733;28;19950;-70
2022/01/11 00:37:43;;;;;;;;;;;6.50;99.90;;;;;;5007361;28;19972;-71
2022/01/11 00:40:10;;;;;;;;;;;6.40;99.90;;;;;;5008501;28;19905;-72
2022/01/11 00:42:35;;;;;;;;;;;6.50;99.90;;;;;;5008416;28;19909;-70
2022/01/11 00:45:03;;;;;;;;;;;6.50;99.90;;;;;;5010473;28;20244;-69
2022/01/11 00:47:28;;;;;;;;;;;6.50;99.90;;;;;;5008496;28;20363;-70
2022/01/11 00:49:55;;;;;;;;;;;6.50;99.90;;;;;;5005871;28;19920;-72
2022/01/11 00:52:20;;;;;;;;;;;6.40;99.90;;;;;;5011287;28;19989;-70
2022/01/11 00:54:46;;;;;;;;;;;6.40;99.90;;;;;;5011215;28;19971;-71
2022/01/11 00:57:12;;;;;;;;;;;6.30;99.90;;;;;;5007665;28;19929;-71
2022/01/11 00:59:37;;;;;;;;;;;6.40;99.90;;;;;;5009218;28;19980;-70
2022/01/11 01:02:03;;;;;;;;;;;6.30;99.90;;;;;;5009095;28;19909;-70
2022/01/11 01:04:28;;;;;;;;;;;6.30;99.90;;;;;;5011478;28;20268;-71
2022/01/11 01:06:54;;;;;;;;;;;6.30;99.90;;;;;;5006398;28;19921;-71
2022/01/11 01:09:20;;;;;;;;;;;6.40;99.90;;;;;;5008093;28;19936;-69
2022/01/11 01:11:46;;;;;;;;;;;6.50;99.90;;;;;;5009829;28;19909;-70
2022/01/11 01:14:13;;;;;;;;;;;6.50;99.90;;;;;;5009232;28;19916;-71
2022/01/11 01:16:39;;;;;;;;;;;6.50;99.90;;;;;;5011141;28;19996;-70
2022/01/11 01:19:04;;;;;;;;;;;6.50;99.90;;;;;;5009769;28;20281;-70
2022/01/11 01:21:36;;;;;;;;;;;6.40;99.90;;;;;;5010098;28;19948;-70
2022/01/11 01:24:02;;;;;;;;;;;6.30;99.90;;;;;;5008638;28;19909;-70
2022/01/11 01:26:28;;;;;;;;;;;6.30;99.90;;;;;;5009558;28;19913;-70
2022/01/11 01:28:54;;;;;;;;;;;6.30;99.90;;;;;;5007280;28;19920;-70
2022/01/11 01:31:20;;;;;;;;;;;6.40;99.90;;;;;;5010991;28;19909;-71
2022/01/11 01:33:46;;;;;;;;;;;6.30;99.90;;;;;;5013377;28;20454;-69
2022/01/11 01:36:11;;;;;;;;;;;6.30;99.90;;;;;;5008983;28;19970;-70
2022/01/11 01:38:37;;;;;;;;;;;6.30;99.90;;;;;;5009302;28;19909;-71
2022/01/11 01:41:15;;;;;;;;;;;6.20;99.90;;;;;;5010827;28;20005;-70
2022/01/11 01:43:46;;;;;;;;;;;6.20;99.90;;;;;;5010013;28;19916;-70
2022/01/11 01:46:12;;;;;;;;;;;6.30;99.90;;;;;;5007356;28;19914;-72
2022/01/11 01:48:38;;;;;;;;;;;6.30;99.90;;;;;;5008506;28;20323;-70
2022/01/11 01:51:05;;;;;;;;;;;6.20;99.90;;;;;;5009783;28;19909;-72
2022/01/11 01:53:30;;;;;;;;;;;6.20;99.90;;;;;;5010300;28;19913;-70
2022/01/11 01:55:56;;;;;;;;;;;6.20;99.90;;;;;;5009986;28;20378;-70
2022/01/11 01:58:22;;;;;;;;;;;6.20;99.90;;;;;;5007720;28;19909;-72
2022/01/11 02:00:51;;;;;;;;;;;6.20;99.90;;;;;;5008008;28;19913;-71
2022/01/11 02:03:18;;;;;;;;;;;6.20;99.90;;;;;;5011249;28;19941;-70
2022/01/11 02:05:43;;;;;;;;;;;6.20;99.90;;;;;;5008609;28;20000;-70
2022/01/11 02:08:09;;;;;;;;;;;6.20;99.90;;;;;;5006430;28;19979;-69
2022/01/11 02:10:36;;;;;;;;;;;6.20;99.90;;;;;;5008513;28;19913;-70
2022/01/11 02:13:03;;;;;;;;;;;6.10;99.90;;;;;;5009770;28;20000;-71
2022/01/11 02:15:28;;;;;;;;;;;6.20;99.90;;;;;;5002679;28;19913;-70
2022/01/11 02:17:54;;;;;;;;;;;6.20;99.90;;;;;;5008010;28;20389;-71
2022/01/11 02:20:19;;;;;;;;;;;6.10;99.90;;;;;;5009675;28;19914;-68
2022/01/11 02:22:45;;;;;;;;;;;6.10;99.90;;;;;;5006076;28;19955;-70
2022/01/11 02:25:11;;;;;;;;;;;6.10;99.90;;;;;;5008337;28;20047;-71
2022/01/11 02:27:36;;;;;;;;;;;6.10;99.90;;;;;;5009438;28;19909;-71
2022/01/11 02:30:03;;;;;;;;;;;6.10;99.90;;;;;;5008586;28;19932;-69
2022/01/11 02:32:29;;;;;;;;;;;6.10;99.90;;;;;;5008653;28;19913;-71
2022/01/11 02:34:54;;;;;;;;;;;6.20;99.90;;;;;;5005123;28;19913;-69
2022/01/11 02:37:20;;;;;;;;;;;6.20;99.90;;;;;;5008766;28;20007;-70
2022/01/11 02:39:46;;;;;;;;;;;6.20;99.90;;;;;;5011494;28;19916;-70
2022/01/11 02:42:12;;;;;;;;;;;6.10;99.90;;;;;;5009800;28;19909;-69
2022/01/11 02:44:37;;;;;;;;;;;6.10;99.90;;;;;;5007895;28;20059;-70
2022/01/11 02:47:03;;;;;;;;;;;6.10;99.90;;;;;;5007732;28;19920;-72
2022/01/11 02:49:29;;;;;;;;;;;6.00;99.90;;;;;;5006867;28;19920;-69
2022/01/11 02:51:55;;;;;;;;;;;6.00;99.90;;;;;;5008310;28;19913;-71
2022/01/11 02:54:21;;;;;;;;;;;6.00;99.90;;;;;;5010216;28;20349;-72
2022/01/11 02:56:47;;;;;;;;;;;6.00;99.90;;;;;;5012098;28;19909;-74
2022/01/11 02:59:13;;;;;;;;;;;6.00;99.90;;;;;;5011175;28;19912;-71
2022/01/11 03:01:39;;;;;;;;;;;6.00;99.90;;;;;;5011671;28;19906;-72
2022/01/11 03:04:04;;;;;;;;;;;6.00;99.90;;;;;;5008996;28;20039;-71
2022/01/11 03:06:30;;;;;;;;;;;6.10;99.90;;;;;;5009404;28;20383;-70
2022/01/11 03:08:56;;;;;;;;;;;6.00;99.90;;;;;;5005679;28;19910;-70
2022/01/11 03:11:21;;;;;;;;;;;6.00;99.90;;;;;;5008789;28;19910;-69
2022/01/11 03:13:47;;;;;;;;;;;6.00;99.90;;;;;;5006577;28;19909;-70
2022/01/11 03:16:13;;;;;;;;;;;6.00;99.90;;;;;;5008681;28;19996;-69
2022/01/11 03:18:39;;;;;;;;;;;5.90;99.90;;;;;;5008492;28;20407;-68
2022/01/11 03:21:05;;;;;;;;;;;6.00;99.90;;;;;;5007236;28;20023;-69
2022/01/11 03:23:31;;;;;;;;;;;6.00;99.90;;;;;;5009042;28;19988;-73
2022/01/11 03:25:56;;;;;;;;;;;5.90;99.90;;;;;;5010122;28;20056;-72
2022/01/11 03:28:23;;;;;;;;;;;6.00;99.90;;;;;;5009578;28;20371;-70
2022/01/11 03:30:50;;;;;;;;;;;6.00;99.90;;;;;;5007406;28;20308;-71
2022/01/11 03:33:15;;;;;;;;;;;5.90;99.90;;;;;;5009074;28;19947;-70
2022/01/11 03:35:41;;;;;;;;;;;5.90;99.90;;;;;;5014021;28;20331;-72
2022/01/11 03:38:08;;;;;;;;;;;5.90;99.90;;;;;;5006407;28;19916;-71
2022/01/11 03:40:33;;;;;;;;;;;6.00;99.90;;;;;;5009601;28;19928;-71
2022/01/11 03:42:59;;;;;;;;;;;5.90;99.90;;;;;;5008600;28;19910;-71
2022/01/11 03:45:26;;;;;;;;;;;5.90;99.90;;;;;;5010283;28;20362;-70
2022/01/11 03:47:52;;;;;;;;;;;5.80;99.90;;;;;;5006086;28;19910;-70
2022/01/11 03:50:19;;;;;;;;;;;5.90;99.90;;;;;;5007898;28;19909;-71
2022/01/11 03:52:44;;;;;;;;;;;5.90;99.90;;;;;;5003875;28;20005;-68
2022/01/11 03:55:21;;;;;;;;;;;5.90;99.90;;;;;;5006467;28;20028;-70
2022/01/11 03:57:47;;;;;;;;;;;5.90;99.90;;;;;;5008568;28;19917;-71
2022/01/11 04:00:14;;;;;;;;;;;6.00;99.90;;;;;;5004681;28;19996;-70
2022/01/11 04:02:40;;;;;;;;;;;6.00;99.90;;;;;;5009505;28;19909;-71
2022/01/11 04:05:06;;;;;;;;;;;6.00;99.90;;;;;;5009292;28;19963;-71
2022/01/11 04:07:32;;;;;;;;;;;6.10;99.90;;;;;;5000251;28;20268;-73
2022/01/11 04:09:57;;;;;;;;;;;6.00;99.90;;;;;;5013163;28;19909;-71
2022/01/11 04:12:23;;;;;;;;;;;6.10;99.90;;;;;;5006401;28;20398;-71
2022/01/11 04:14:50;;;;;;;;;;;6.30;99.90;;;;;;5009103;28;20541;-71
2022/01/11 04:17:16;;;;;;;;;;;6.30;99.90;;;;;;5011900;28;20003;-72
2022/01/11 04:19:42;;;;;;;;;;;6.40;99.90;;;;;;5008770;28;20055;-70
2022/01/11 04:22:07;;;;;;;;;;;6.30;99.90;;;;;;5011089;28;20295;-71
2022/01/11 04:24:33;;;;;;;;;;;6.40;99.90;;;;;;5011924;28;19917;-71
2022/01/11 04:26:59;;;;;;;;;;;6.40;99.90;;;;;;5012145;28;19920;-72
2022/01/11 04:29:25;;;;;;;;;;;6.50;99.90;;;;;;5009801;28;19917;-71
2022/01/11 04:31:50;;;;;;;;;;;6.50;99.90;;;;;;5012543;28;19909;-71
2022/01/11 04:34:16;;;;;;;;;;;6.40;99.90;;;;;;5011518;28;20421;-71
2022/01/11 04:36:41;;;;;;;;;;;6.40;99.90;;;;;;5008894;28;20363;-70
2022/01/11 04:39:08;;;;;;;;;;;6.50;99.90;;;;;;5011189;28;20357;-72
2022/01/11 04:41:34;;;;;;;;;;;6.50;99.90;;;;;;5010335;28;19996;-70
2022/01/11 04:43:59;;;;;;;;;;;6.50;99.90;;;;;;5010490;28;20060;-70
2022/01/11 04:46:26;;;;;;;;;;;6.50;99.90;;;;;;5010656;28;20378;-72
2022/01/11 04:48:52;;;;;;;;;;;6.60;99.90;;;;;;5007804;28;19933;-69
2022/01/11 04:51:19;;;;;;;;;;;6.60;99.90;;;;;;5009938;28;19916;-71
2022/01/11 04:53:46;;;;;;;;;;;6.60;99.90;;;;;;5007021;28;19913;-72
2022/01/11 04:56:12;;;;;;;;;;;6.60;99.90;;;;;;5011184;28;19952;-70
2022/01/11 04:58:37;;;;;;;;;;;6.60;99.90;;;;;;5011751;28;19952;-72
2022/01/11 05:01:03;;;;;;;;;;;6.70;99.90;;;;;;5011488;28;20349;-73
2022/01/11 05:03:28;;;;;;;;;;;6.70;99.90;;;;;;5008177;28;19910;-70
2022/01/11 05:05:54;;;;;;;;;;;6.70;99.90;;;;;;5011981;28;19967;-70
2022/01/11 05:08:20;;;;;;;;;;;6.70;99.90;;;;;;5009462;28;20008;-71
2022/01/11 05:10:45;;;;;;;;;;;6.70;99.90;;;;;;5012287;28;19916;-71
2022/01/11 05:13:11;;;;;;;;;;;6.70;99.90;;;;;;5011994;28;19910;-72
2022/01/11 05:15:37;;;;;;;;;;;6.60;99.90;;;;;;5015057;28;19953;-71
2022/01/11 05:18:03;;;;;;;;;;;6.60;99.90;;;;;;5010404;28;20288;-70
2022/01/11 05:20:29;;;;;;;;;;;6.60;99.90;;;;;;5010587;28;19936;-74
2022/01/11 05:22:54;;;;;;;;;;;6.60;99.90;;;;;;5009961;28;19960;-71
2022/01/11 05:25:20;;;;;;;;;;;6.70;99.90;;;;;;5007457;28;19917;-71
2022/01/11 05:27:46;;;;;;;;;;;6.80;99.90;;;;;;5011291;28;19913;-71
2022/01/11 05:30:12;;;;;;;;;;;6.70;99.90;;;;;;5006004;28;20252;-71
2022/01/11 05:32:38;;;;;;;;;;;6.80;99.90;;;;;;5011900;28;19956;-72
2022/01/11 05:35:05;;;;;;;;;;;6.80;99.90;;;;;;5017053;28;19909;-72
2022/01/11 05:37:31;;;;;;;;;;;6.90;99.90;;;;;;5006909;28;19909;-71
2022/01/11 05:39:58;;;;;;;;;;;6.90;99.90;;;;;;5008038;28;19910;-71
2022/01/11 05:42:24;;;;;;;;;;;6.80;99.90;;;;;;5009197;28;19909;-70
2022/01/11 05:44:50;;;;;;;;;;;6.70;99.90;;;;;;5012098;28;19920;-70
2022/01/11 05:47:16;;;;;;;;;;;6.80;99.90;;;;;;5007080;28;20284;-70
2022/01/11 05:49:41;;;;;;;;;;;6.80;99.90;;;;;;5010935;28;19932;-71
2022/01/11 05:52:07;;;;;;;;;;;6.80;99.90;;;;;;5005975;28;19910;-72
2022/01/11 05:54:32;;;;;;;;;;;6.80;99.90;;;;;;5010305;28;19910;-73
2022/01/11 05:56:58;;;;;;;;;;;6.80;99.90;;;;;;5013062;28;20339;-70
2022/01/11 05:59:24;;;;;;;;;;;6.80;99.90;;;;;;5010676;28;19929;-70
2022/01/11 06:01:49;;;;;;;;;;;6.80;99.90;;;;;;5010264;28;19909;-70
2022/01/11 06:04:15;;;;;;;;;;;6.70;99.90;;;;;;5010070;28;20328;-71
2022/01/11 06:06:40;;;;;;;;;;;6.70;99.90;;;;;;5004295;28;19936;-70
2022/01/11 06:09:06;;;;;;;;;;;6.80;99.90;;;;;;5007225;28;20019;-72
2022/01/11 06:11:32;;;;;;;;;;;6.70;99.90;;;;;;5007310;28;19978;-71
2022/01/11 06:13:57;;;;;;;;;;;6.60;99.90;;;;;;5008748;28;20299;-70
2022/01/11 06:16:23;;;;;;;;;;;6.60;99.90;;;;;;5006870;28;19913;-69
2022/01/11 06:18:49;;;;;;;;;;;6.50;99.90;;;;;;5005480;28;20426;-70
2022/01/11 06:21:14;;;;;;;;;;;6.50;99.90;;;;;;5004855;28;19913;-71
2022/01/11 06:23:40;;;;;;;;;;;6.60;99.90;;;;;;5009669;28;20261;-70
2022/01/11 06:26:05;;;;;;;;;;;6.50;99.90;;;;;;5010941;28;20478;-71
2022/01/11 06:28:31;;;;;;;;;;;6.50;99.90;;;;;;5009778;28;19909;-69
2022/01/11 06:30:57;;;;;;;;;;;6.60;99.90;;;;;;5009190;28;20498;-70
2022/01/11 06:33:25;;;;;;;;;;;6.60;99.90;;;;;;5009063;28;19925;-72
2022/01/11 06:35:51;;;;;;;;;;;6.60;99.90;;;;;;5007521;28;19934;-71
2022/01/11 06:38:17;;;;;;;;;;;6.50;99.90;;;;;;5008670;28;20335;-73
2022/01/11 06:40:42;;;;;;;;;;;6.40;99.90;;;;;;5007564;28;20003;-71
2022/01/11 06:43:08;;;;;;;;;;;6.30;99.90;;;;;;5007908;28;20290;-72
2022/01/11 06:45:34;;;;;;;;;;;6.20;99.90;;;;;;5010712;28;20387;-70
2022/01/11 06:48:00;;;;;;;;;;;6.20;99.90;;;;;;5009944;28;20290;-70
2022/01/11 06:50:26;;;;;;;;;;;6.20;99.90;;;;;;5010505;28;19909;-70
2022/01/11 06:52:52;;;;;;;;;;;6.20;99.90;;;;;;5007794;28;19910;-71
2022/01/11 06:55:19;;;;;;;;;;;6.10;99.90;;;;;;5008123;28;19913;-72
2022/01/11 06:57:45;;;;;;;;;;;6.10;99.90;;;;;;5008503;28;19940;-71
2022/01/11 07:00:11;;;;;;;;;;;6.00;99.90;;;;;;5009880;28;19916;-72
2022/01/11 07:02:37;;;;;;;;;;;6.00;99.90;;;;;;5009127;28;20303;-72
2022/01/11 07:05:03;;;;;;;;;;;6.10;99.90;;;;;;5007854;28;19916;-71
2022/01/11 07:07:29;;;;;;;;;;;6.00;99.90;;;;;;5017520;28;19920;-72
2022/01/11 07:09:54;;;;;;;;;;;6.00;99.90;;;;;;5007549;28;19920;-71
2022/01/11 07:12:20;;;;;;;;;;;6.00;99.90;;;;;;5008693;28;20550;-70
2022/01/11 07:14:45;;;;;;;;;;;6.00;99.90;;;;;;5009462;28;19920;-74
2022/01/11 07:17:11;;;;;;;;;;;6.00;99.90;;;;;;5009366;28;20004;-72
2022/01/11 07:19:37;;;;;;;;;;;6.00;99.90;;;;;;5009365;28;19917;-70
2022/01/11 07:22:03;;;;;;;;;;;6.00;99.90;;;;;;5010330;28;19921;-69
2022/01/11 07:24:29;;;;;;;;;;;6.20;99.90;;;;;;5006610;28;20268;-71
2022/01/11 07:26:55;;;;;;;;;;;6.20;99.90;;;;;;5011075;28;20142;-71
2022/01/11 07:29:20;;;;;;;;;;;6.10;99.90;;;;;;5009247;28;19924;-72
2022/01/11 07:31:46;;;;;;;;;;;6.10;99.90;;;;;;5010527;28;19906;-72
2022/01/11 07:34:11;;;;;;;;;;;6.10;99.90;;;;;;5009036;28;19909;-71
2022/01/11 07:36:38;;;;;;;;;;;6.10;99.90;;;;;;5011820;28;19912;-71
2022/01/11 07:39:04;;;;;;;;;;;6.00;99.90;;;;;;5016033;28;19971;-73
2022/01/11 07:41:30;;;;;;;;;;;6.00;99.90;;;;;;5006583;28;19932;-72
2022/01/11 07:43:55;;;;;;;;;;;6.00;99.90;;;;;;5015287;28;19913;-73
2022/01/11 07:46:21;;;;;;;;;;;5.90;99.90;;;;;;5011348;28;19921;-71
2022/01/11 07:48:47;;;;;;;;;;;5.90;99.90;;;;;;5013053;28;20268;-74
2022/01/11 07:51:12;;;;;;;;;;;6.00;99.90;;;;;;5010257;28;19914;-72
2022/01/11 07:53:38;;;;;;;;;;;6.10;99.90;;;;;;5008284;28;19964;-70
2022/01/11 07:56:04;;;;;;;;;;;6.10;99.90;;;;;;5013070;28;19937;-70
2022/01/11 07:58:29;;;;;;;;;;;6.10;99.90;;;;;;5014141;28;19989;-72
2022/01/11 08:00:55;;;;;;;;;;;6.10;99.90;;;;;;5008960;28;20397;-69
2022/01/11 08:03:20;;;;;;;;;;;6.20;99.90;;;;;;5009529;28;19921;-71
2022/01/11 08:05:46;;;;;;;;;;;6.20;99.90;;;;;;5009298;28;19913;-71
2022/01/11 08:08:11;;;;;;;;;;;6.20;99.90;;;;;;5008887;28;19945;-72
2022/01/11 08:10:37;;;;;;;;;;;6.20;99.90;;;;;;5011230;28;20335;-72
2022/01/11 08:13:06;;;;;;;;;;;6.30;99.90;;;;;;5009204;28;19909;-72
2022/01/11 08:15:32;;;;;;;;;;;6.30;99.90;;;;;;5011621;28;20146;-72
2022/01/11 08:17:57;;;;;;;;;;;6.30;99.90;;;;;;5012111;28;19909;-74
2022/01/11 08:20:23;;;;;;;;;;;6.30;99.90;;;;;;5011159;28;19917;-72
2022/01/11 08:22:50;;;;;;;;;;;6.30;99.90;;;;;;5011213;28;20330;-72
2022/01/11 08:25:15;;;;;;;;;;;6.30;99.90;;;;;;5013890;28;20286;-74
2022/01/11 08:27:41;;;;;;;;;;;6.40;99.90;;;;;;5010962;28;19912;-71
2022/01/11 08:30:07;;;;;;;;;;;6.40;99.90;;;;;;5011341;28;20000;-71
2022/01/11 08:32:32;;;;;;;;;;;6.40;99.90;;;;;;5011148;28;20374;-71
2022/01/11 08:34:58;;;;;;;;;;;6.50;99.90;;;;;;5012728;28;19916;-71
2022/01/11 08:37:24;;;;;;;;;;;6.40;99.90;;;;;;5011824;28;19913;-72
2022/01/11 08:39:49;;;;;;;;;;;6.40;99.90;;;;;;5013323;28;19909;-71
2022/01/11 08:42:15;;;;;;;;;;;6.40;99.90;;;;;;5009039;28;20604;-72
2022/01/11 08:44:42;;;;;;;;;;;6.40;99.90;;;;;;5011592;28;19909;-70
2022/01/11 08:47:08;;;;;;;;;;;6.40;99.90;;;;;;5011847;28;20284;-70
2022/01/11 08:49:40;;;;;;;;;;;6.40;99.90;;;;;;5011455;28;19984;-71
2022/01/11 08:52:06;;;;;;;;;;;6.40;99.90;;;;;;5013362;28;20036;-71
2022/01/11 08:54:32;;;;;;;;;;;6.40;99.90;;;;;;5009266;28;19925;-67
2022/01/11 08:56:57;;;;;;;;;;;6.50;99.90;;;;;;5011123;28;20004;-72
2022/01/11 08:59:25;;;;;;;;;;;6.50;99.90;;;;;;5010072;28;19909;-70
2022/01/11 09:01:54;;;;;;;;;;;6.50;99.90;;;;;;5011104;28;20468;-71
2022/01/11 09:04:21;;;;;;;;;;;6.50;99.90;;;;;;5011456;28;19909;-70
2022/01/11 09:06:47;;;;;;;;;;;6.50;99.90;;;;;;5012740;28;19909;-69
2022/01/11 09:09:13;;;;;;;;;;;6.60;99.90;;;;;;5009764;28;20389;-70
2022/01/11 09:11:38;;;;;;;;;;;6.70;99.90;;;;;;5014518;28;19913;-69
2022/01/11 09:14:04;;;;;;;;;;;6.80;99.90;;;;;;5014924;28;20380;-71
2022/01/11 09:16:29;;;;;;;;;;;6.80;99.90;;;;;;5012595;28;19932;-69
2022/01/11 09:18:55;;;;;;;;;;;6.70;99.90;;;;;;5014744;28;19913;-70
2022/01/11 09:21:22;;;;;;;;;;;6.70;99.90;;;;;;5014027;28;19917;-68
2022/01/11 09:23:48;;;;;;;;;;;6.70;99.90;;;;;;5011523;28;19910;-68
2022/01/11 09:26:14;;;;;;;;;;;6.80;99.90;;;;;;5010506;28;19917;-67
2022/01/11 09:28:40;;;;;;;;;;;6.90;99.90;;;;;;5011762;28;19932;-68
2022/01/11 09:31:06;;;;;;;;;;;7.00;99.90;;;;;;5011423;28;19915;-69
2022/01/11 09:33:32;;;;;;;;;;;7.10;99.90;;;;;;5012405;28;19985;-69
2022/01/11 09:35:58;;;;;;;;;;;7.10;99.90;;;;;;5010024;28;19913;-69
2022/01/11 09:38:24;;;;;;;;;;;7.10;99.90;;;;;;5010255;28;19916;-68
2022/01/11 09:40:54;;;;;;;;;;;7.00;99.90;;;;;;5012621;28;20370;-70
2022/01/11 09:43:21;;;;;;;;;;;7.00;99.90;;;;;;5013469;28;19917;-68
2022/01/11 09:45:47;;;;;;;;;;;7.10;99.90;;;;;;5012738;28;20012;-70
2022/01/11 09:48:13;;;;;;;;;;;7.10;99.90;;;;;;5001847;28;20367;-71
2022/01/11 09:50:39;;;;;;;;;;;7.00;99.90;;;;;;5011784;28;19910;-70
2022/01/11 09:53:04;;;;;;;;;;;7.00;99.90;;;;;;5011557;28;19925;-71
2022/01/11 09:55:30;;;;;;;;;;;7.00;99.90;;;;;;5009461;28;19916;-69
2022/01/11 09:57:56;;;;;;;;;;;7.10;99.90;;;;;;5009284;28;19920;-69
2022/01/11 10:00:21;;;;;;;;;;;7.00;99.90;;;;;;5011921;28;19905;-69
2022/01/11 10:02:47;;;;;;;;;;;6.90;99.90;;;;;;5009844;28;20371;-70
2022/01/11 10:05:14;;;;;;;;;;;6.90;99.90;;;;;;5012146;28;19909;-71
2022/01/11 10:07:40;;;;;;;;;;;7.00;99.90;;;;;;5008379;28;19917;-70
2022/01/11 10:10:20;;;;;;;;;;;7.10;99.90;;;;;;5009694;28;20258;-71
2022/01/11 10:12:47;;;;;;;;;;;7.10;99.90;;;;;;5011773;28;20370;-70
2022/01/11 10:15:13;;;;;;;;;;;7.10;99.90;;;;;;5011016;28;19928;-72
2022/01/11 10:17:40;;;;;;;;;;;7.20;99.90;;;;;;5009629;28;19909;-71
2022/01/11 10:20:12;;;;;;;;;;;7.20;99.90;;;;;;5010200;28;19905;-71
2022/01/11 10:22:53;;;;;;;;;;;7.10;99.90;;;;;;5009474;28;19924;-71
2022/01/11 10:25:18;;;;;;;;;;;7.20;99.90;;;;;;5009599;28;19909;-71
2022/01/11 10:27:51;;;;;;;;;;;7.20;99.90;;;;;;5012182;28;19905;-71
2022/01/11 10:30:18;;;;;;;;;;;7.20;99.90;;;;;;5009611;28;20379;-70
2022/01/11 10:32:47;;;;;;;;;;;7.30;99.90;;;;;;5011018;28;19910;-70
2022/01/11 10:35:17;;;;;;;;;;;7.50;99.90;;;;;;5010921;28;19909;-70
2022/01/11 10:37:47;;;;;;;;;;;7.60;99.90;;;;;;5011675;28;19916;-70
2022/01/11 10:40:13;;;;;;;;;;;7.50;99.90;;;;;;5009691;28;19910;-72
2022/01/11 10:42:45;;;;;;;;;;;7.30;99.90;;;;;;5013697;28;20474;-71
2022/01/11 10:45:33;;;;;;;;;;;7.30;99.90;;;;;;5010924;28;19913;-70
2022/01/11 10:48:00;;;;;;;;;;;7.30;99.90;;;;;;5006620;28;19936;-71
2022/01/11 10:50:34;;;;;;;;;;;7.40;99.90;;;;;;5010187;28;19963;-69
2022/01/11 10:53:19;;;;;;;;;;;7.30;99.90;;;;;;5009861;28;19909;-71
2022/01/11 10:55:48;;;;;;;;;;;7.20;99.90;;;;;;5007789;28;19913;-70
2022/01/11 10:58:14;;;;;;;;;;;7.20;99.90;;;;;;5009518;28;20558;-71
2022/01/11 11:00:40;;;;;;;;;;;7.20;99.90;;;;;;5011833;28;19921;-69
2022/01/11 11:03:12;;;;;;;;;;;7.10;99.90;;;;;;5009488;28;19913;-71
2022/01/11 11:05:43;;;;;;;;;;;7.20;99.90;;;;;;5011853;28;19913;-68
2022/01/11 11:08:13;;;;;;;;;;;7.30;99.90;;;;;;5021586;28;20019;-69
2022/01/11 11:10:46;;;;;;;;;;;7.30;99.90;;;;;;5028917;28;19909;-70
2022/01/11 11:13:26;;;;;;;;;;;7.30;99.90;;;;;;5012389;28;19914;-70
2022/01/11 11:15:56;;;;;;;;;;;7.40;99.90;;;;;;5013628;28;19963;-68
2022/01/11 11:18:30;;;;;;;;;;;7.40;99.90;;;;;;5014182;28;19909;-70
2022/01/11 11:21:10;;;;;;;;;;;7.50;99.90;;;;;;5006350;28;19928;-69
2022/01/11 11:23:36;;;;;;;;;;;7.60;99.90;;;;;;5010817;28;19915;-69
2022/01/11 11:26:03;;;;;;;;;;;7.80;99.90;;;;;;5015240;28;20039;-69
2022/01/11 11:28:29;;;;;;;;;;;7.70;99.90;;;;;;5015487;28;20472;-71
2022/01/11 11:30:55;;;;;;;;;;;7.70;99.90;;;;;;5017028;28;19996;-71
2022/01/11 11:33:20;;;;;;;;;;;7.80;99.90;;;;;;5019395;28;20356;-71
2022/01/11 11:35:47;;;;;;;;;;;7.80;99.90;;;;;;5019292;28;19944;-72
2022/01/11 11:38:13;;;;;;;;;;;7.80;99.90;;;;;;5025194;28;19949;-71
2022/01/11 11:40:39;;;;;;;;;;;7.90;99.90;;;;;;5024310;28;19916;-71
2022/01/11 11:43:05;;;;;;;;;;;7.90;99.90;;;;;;5022382;28;20327;-71
2022/01/11 11:45:35;;;;;;;;;;;7.80;99.90;;;;;;5023061;28;19977;-72
2022/01/11 11:48:11;;;;;;;;;;;7.90;99.90;;;;;;5015529;28;20358;-71
2022/01/11 11:50:46;;;;;;;;;;;7.90;99.90;;;;;;5013809;28;20299;-71
2022/01/11 11:53:22;;;;;;;;;;;7.90;99.90;;;;;;5015651;28;19917;-71
2022/01/11 11:55:47;;;;;;;;;;;7.90;99.90;;;;;;5014358;28;19905;-71
2022/01/11 11:58:18;;;;;;;;;;;7.90;99.90;;;;;;5014390;28;19915;-72
2022/01/11 12:00:45;;;;;;;;;;;7.80;99.90;;;;;;5013541;28;20354;-71
2022/01/11 12:03:16;;;;;;;;;;;7.80;99.90;;;;;;5014505;28;20291;-71
2022/01/11 12:05:46;;;;;;;;;;;7.60;99.90;;;;;;5012880;28;19910;-72
2022/01/11 12:08:36;;;;;;;;;;;7.70;99.90;;;;;;5011753;28;20339;-72
2022/01/11 12:11:02;;;;;;;;;;;7.70;99.90;;;;;;5012596;28;20363;-71
2022/01/11 12:13:43;;;;;;;;;;;7.80;99.90;;;;;;5012226;28;19910;-72
2022/01/11 12:16:23;;;;;;;;;;;7.80;99.90;;;;;;5012895;28;20220;-71
2022/01/11 12:18:50;;;;;;;;;;;7.80;99.90;;;;;;5008347;28;19910;-70
2022/01/11 12:21:15;;;;;;;;;;;7.80;99.90;;;;;;5013265;28;19920;-70
2022/01/11 12:23:41;;;;;;;;;;;7.80;99.90;;;;;;5015239;28;19909;-71
2022/01/11 12:26:16;;;;;;;;;;;7.90;99.90;;;;;;5014183;28;20358;-70
2022/01/11 12:28:42;;;;;;;;;;;7.90;99.90;;;;;;5014638;28;20004;-70
2022/01/11 12:31:24;;;;;;;;;;;8.00;99.90;;;;;;5014526;28;19917;-68
2022/01/11 12:33:49;;;;;;;;;;;8.00;99.90;;;;;;5011366;28;19909;-71
2022/01/11 12:36:15;;;;;;;;;;;7.90;99.90;;;;;;5015161;28;19917;-70
2022/01/11 12:39:00;;;;;;;;;;;7.90;99.90;;;;;;5014562;28;19916;-70
2022/01/11 12:41:26;;;;;;;;;;;7.90;99.90;;;;;;5013959;28;19921;-69
2022/01/11 12:44:13;;;;;;;;;;;7.80;99.90;;;;;;5012483;28;20369;-69
2022/01/11 12:46:49;;;;;;;;;;;7.80;99.90;;;;;;5011866;28;19909;-70
2022/01/11 12:49:15;;;;;;;;;;;7.80;99.90;;;;;;5013322;28;20256;-70
2022/01/11 12:51:50;;;;;;;;;;;7.80;99.90;;;;;;5013896;28;20535;-70
2022/01/11 12:54:15;;;;;;;;;;;7.70;99.90;;;;;;5013258;28;19913;-69
2022/01/11 12:56:41;;;;;;;;;;;7.80;99.90;;;;;;5011851;28;20035;-69
2022/01/11 12:59:07;;;;;;;;;;;7.70;99.90;;;;;;5012344;28;19910;-68
2022/01/11 13:01:33;;;;;;;;;;;7.80;99.90;;;;;;5010876;28;19913;-69
2022/01/11 13:04:00;;;;;;;;;;;7.90;99.90;;;;;;5011816;28;20368;-70
2022/01/11 13:06:30;;;;;;;;;;;8.00;99.90;;;;;;5011713;28;19909;-68
2022/01/11 13:08:56;;;;;;;;;;;7.80;99.90;;;;;;5013528;28;20370;-69
2022/01/11 13:11:22;;;;;;;;;;;7.70;99.90;;;;;;5014552;28;20654;-69
2022/01/11 13:13:55;;;;;;;;;;;7.60;99.90;;;;;;5018096;28;19909;-70
2022/01/11 13:16:27;;;;;;;;;;;7.60;99.90;;;;;;5014217;28;19967;-69
2022/01/11 13:18:53;;;;;;;;;;;7.60;99.90;;;;;;5014419;28;19906;-70
2022/01/11 13:21:22;;;;;;;;;;;7.60;99.90;;;;;;5014461;28;19915;-69
2022/01/11 13:24:11;;;;;;;;;;;7.50;99.90;;;;;;5013988;28;19912;-69
2022/01/11 13:26:36;;;;;;;;;;;7.50;99.90;;;;;;5010414;28;19967;-69
2022/01/11 13:29:02;;;;;;;;;;;7.60;99.90;;;;;;5019580;28;19909;-70
2022/01/11 13:31:28;;;;;;;;;;;7.70;99.90;;;;;;5018795;28;19910;-69
2022/01/11 13:34:03;;;;;;;;;;;7.80;99.90;;;;;;5014663;28;19905;-69
2022/01/11 13:36:30;;;;;;;;;;;7.60;99.90;;;;;;5010961;28;19925;-71
2022/01/11 13:39:04;;;;;;;;;;;7.60;99.90;;;;;;5010651;28;19917;-69
2022/01/11 13:41:31;;;;;;;;;;;7.70;99.90;;;;;;5010000;28;19920;-69
2022/01/11 13:43:58;;;;;;;;;;;7.80;99.90;;;;;;5012747;28;19905;-69
2022/01/11 13:46:24;;;;;;;;;;;7.70;99.90;;;;;;5011612;28;19913;-69
2022/01/11 13:48:51;;;;;;;;;;;7.70;99.90;;;;;;5012764;28;19905;-70
2022/01/11 13:51:22;;;;;;;;;;;7.70;99.90;;;;;;5011382;28;19910;-69
2022/01/11 13:53:50;;;;;;;;;;;7.60;99.90;;;;;;5010708;28;20417;-69
2022/01/11 13:56:16;;;;;;;;;;;7.50;99.90;;;;;;5010584;28;19916;-70
2022/01/11 13:58:49;;;;;;;;;;;7.40;99.90;;;;;;5011916;28;20355;-69
2022/01/11 14:01:16;;;;;;;;;;;7.50;99.90;;;;;;5011826;28;20011;-69
2022/01/11 14:03:49;;;;;;;;;;;7.50;99.90;;;;;;5151335;27;20327;-69
2022/01/11 14:06:16;;;;;;;;;;;7.50;99.90;;;;;;5147830;27;20557;-69
2022/01/11 14:08:48;;;;;;;;;;;7.50;99.90;;;;;;5151427;27;19976;-69
2022/01/11 14:11:23;;;;;;;;;;;7.50;99.90;;;;;;5147905;27;20369;-70
2022/01/11 14:13:49;;;;;;;;;;;7.40;99.90;;;;;;5143258;27;19911;-69
2022/01/11 14:16:15;;;;;;;;;;;7.40;99.90;;;;;;5147928;27;20002;-69
2022/01/11 14:18:41;;;;;;;;;;;7.40;99.90;;;;;;5137489;27;20376;-70
2022/01/11 14:21:12;;;;;;;;;;;7.40;99.90;;;;;;5148536;27;19907;-68
2022/01/11 14:23:38;;;;;;;;;;;7.40;99.90;;;;;;5146912;27;19919;-69
2022/01/11 14:26:08;;;;;;;;;;;7.50;99.90;;;;;;5146164;27;19915;-70
2022/01/11 14:28:35;;;;;;;;;;;7.40;99.90;;;;;;5150329;27;19907;-69
2022/01/11 14:31:03;;;;;;;;;;;7.50;99.90;;;;;;5141437;27;19915;-70
2022/01/11 14:33:36;;;;;;;;;;;7.40;99.90;;;;;;5144083;27;19950;-71